Time;durP1;ratioP1;P1;durP2;ratioP2;P2;SDS_P1;SDS_P2;PMS_P1;PMS_P2;Temp;Humidity;BMP_temperature;BMP_pressure;BME280_temperature;BME280_humidity;BME280_pressure;Samples;Min_cycle;Max_cycle;Signal;HPM_P1;HPM_P2
2023/06/24 00:02:13;;;;;;;;;;;17.50;51.40;;;13.49;100.00;96307.56;4990340;28;19909;-48
2023/06/24 00:04:39;;;;;;;;;;;17.50;51.50;;;13.48;100.00;96312.13;4995187;28;19909;-47
2023/06/24 00:07:06;;;;;;;;;;;17.40;51.50;;;13.45;100.00;96309.16;4994741;28;19991;-47
2023/06/24 00:09:32;;;;;;;;;;;17.40;51.60;;;13.38;100.00;96309.41;4979072;28;20349;-50
2023/06/24 00:11:59;;;;;;;;;;;17.40;51.80;;;13.35;100.00;96316.09;4993312;28;19992;-46
2023/06/24 00:14:26;;;;;;;;;;;17.30;51.80;;;13.33;100.00;96328.13;4986305;28;20009;-47
2023/06/24 00:16:56;;;;;;;;;;;17.30;51.90;;;13.30;100.00;96326.78;4993553;28;19909;-46
2023/06/24 00:19:24;;;;;;;;;;;17.30;52.10;;;13.27;100.00;96324.63;5009770;28;19941;-50
2023/06/24 00:21:52;;;;;;;;;;;17.30;52.20;;;13.32;100.00;96324.66;4994042;28;19963;-46
2023/06/24 00:24:25;;;;;;;;;;;17.30;52.30;;;13.34;100.00;96327.06;4994995;28;20279;-46
2023/06/24 00:26:55;;;;;;;;;;;17.30;52.40;;;13.41;100.00;96324.94;4989378;28;19913;-52
2023/06/24 00:29:21;;;;;;;;;;;17.30;52.60;;;13.49;100.00;96328.97;4982528;28;19963;-46
2023/06/24 00:31:47;;;;;;;;;;;17.40;52.70;;;13.55;100.00;96333.28;4989868;28;19910;-50
2023/06/24 00:34:13;;;;;;;;;;;17.40;52.80;;;13.63;100.00;96338.91;4979222;28;19909;-49
2023/06/24 00:36:39;;;;;;;;;;;17.40;52.80;;;13.73;100.00;96334.66;5004661;28;19916;-46
2023/06/24 00:39:06;;;;;;;;;;;17.50;52.90;;;13.77;100.00;96331.16;4986077;28;19910;-48
2023/06/24 00:41:34;;;;;;;;;;;17.50;52.90;;;13.83;100.00;96324.75;4992806;28;20360;-46
2023/06/24 00:44:01;;;;;;;;;;;17.60;53.00;;;13.86;100.00;96326.09;4987459;28;19917;-48
2023/06/24 00:46:28;;;;;;;;;;;17.60;52.90;;;13.89;99.88;96322.88;4993386;28;20476;-47
2023/06/24 00:49:00;;;;;;;;;;;17.70;52.90;;;13.91;99.97;96326.06;4994602;28;19916;-48
2023/06/24 00:51:30;;;;;;;;;;;17.70;52.90;;;13.91;99.49;96320.72;4982933;28;19916;-52
2023/06/24 00:54:00;;;;;;;;;;;17.70;52.90;;;13.89;99.09;96328.22;4994581;28;19956;-53
2023/06/24 00:56:31;;;;;;;;;;;17.80;53.60;;;13.83;99.84;96326.63;4992257;28;20257;-53
2023/06/24 00:59:02;;;;;;;;;;;17.80;52.90;;;13.79;99.15;96323.66;5001305;28;20295;-52
2023/06/24 01:01:35;;;;;;;;;;;17.80;53.00;;;13.76;99.70;96326.09;4992506;28;19979;-49
2023/06/24 01:04:03;;;;;;;;;;;17.80;53.00;;;13.71;100.00;96320.72;4978972;28;20284;-50
2023/06/24 01:06:30;;;;;;;;;;;17.80;53.10;;;13.69;100.00;96318.28;5008841;28;20437;-50
2023/06/24 01:09:02;;;;;;;;;;;17.80;53.20;;;13.68;100.00;96315.88;4981152;28;20017;-47
2023/06/24 01:11:29;;;;;;;;;;;17.80;53.20;;;13.63;100.00;96322.84;4986285;28;19909;-46
2023/06/24 01:13:56;;;;;;;;;;;17.80;53.20;;;13.60;100.00;96320.72;4987679;28;19910;-46
2023/06/24 01:16:42;;;;;;;;;;;17.80;53.20;;;13.61;100.00;96316.94;4986217;28;19932;-46
2023/06/24 01:19:50;;;;;;;;;;;17.70;53.30;;;13.63;100.00;96319.34;4993774;28;19910;-46
2023/06/24 01:22:27;;;;;;;;;;;17.70;53.40;;;13.63;100.00;96322.84;4969561;28;19956;-49
2023/06/24 01:25:37;;;;;;;;;;;17.70;53.50;;;13.65;100.00;96322.56;4993610;28;20300;-46
2023/06/24 01:28:40;;;;;;;;;;;17.70;53.50;;;13.68;100.00;96321.25;4979099;28;20448;-49
2023/06/24 01:31:39;;;;;;;;;;;17.70;53.60;;;13.68;100.00;96322.03;4963817;28;19910;-46
2023/06/24 01:34:23;;;;;;;;;;;17.70;53.70;;;13.65;100.00;96327.94;4974014;28;19984;-48
2023/06/24 01:37:17;;;;;;;;;;;17.70;53.80;;;13.63;100.00;96324.69;4973906;28;20007;-47
2023/06/24 01:40:09;;;;;;;;;;;17.70;53.80;;;13.61;100.00;96321.50;4986144;28;19909;-48
2023/06/24 01:42:42;;;;;;;;;;;17.70;53.90;;;13.61;100.00;96321.50;4973612;28;20008;-46
2023/06/24 01:45:14;;;;;;;;;;;17.70;54.00;;;13.58;100.00;96328.19;4972871;28;19971;-46
2023/06/24 01:47:48;;;;;;;;;;;17.60;54.50;;;13.52;100.00;96318.53;4973417;28;19918;-45
2023/06/24 01:50:19;;;;;;;;;;;17.60;54.00;;;13.46;100.00;96324.16;4988144;28;19909;-46
2023/06/24 01:52:46;;;;;;;;;;;17.60;54.00;;;13.35;100.00;96317.94;5002555;28;20331;-46
2023/06/24 01:55:19;;;;;;;;;;;17.50;53.90;;;13.23;100.00;96315.50;4993174;28;19999;-47
2023/06/24 01:57:49;;;;;;;;;;;17.40;53.90;;;13.12;100.00;96314.66;4995818;28;19916;-46
2023/06/24 02:00:17;;;;;;;;;;;17.40;54.00;;;13.05;100.00;96319.44;5008001;28;19909;-49
2023/06/24 02:02:46;;;;;;;;;;;17.30;54.00;;;12.99;100.00;96312.47;4975374;28;19913;-46
2023/06/24 02:05:13;;;;;;;;;;;17.20;54.10;;;12.93;100.00;96313.50;4992755;28;20051;-47
2023/06/24 02:07:42;;;;;;;;;;;17.20;54.20;;;12.86;100.00;96311.09;5004667;28;20344;-48
2023/06/24 02:10:09;;;;;;;;;;;17.10;54.20;;;12.82;100.00;96309.22;4982519;28;19916;-48
2023/06/24 02:12:35;;;;;;;;;;;17.00;54.30;;;12.79;100.00;96309.72;4991674;28;19909;-49
2023/06/24 02:15:04;;;;;;;;;;;16.90;54.40;;;12.74;100.00;96313.16;4989253;28;20368;-48
2023/06/24 02:17:30;;;;;;;;;;;16.90;54.50;;;12.70;100.00;96314.75;4992640;28;19967;-46
2023/06/24 02:19:59;;;;;;;;;;;16.80;54.60;;;12.64;100.00;96310.44;4987856;28;19918;-47
2023/06/24 02:22:25;;;;;;;;;;;16.80;54.70;;;12.60;100.00;96312.84;5005924;28;19952;-46
2023/06/24 02:24:53;;;;;;;;;;;16.70;54.70;;;12.57;100.00;96310.69;5007934;28;19915;-46
2023/06/24 02:27:21;;;;;;;;;;;16.70;54.90;;;12.54;100.00;96308.53;4996203;28;20367;-47
2023/06/24 02:29:48;;;;;;;;;;;16.60;55.00;;;12.50;100.00;96305.56;4993214;28;19910;-48
2023/06/24 02:32:13;;;;;;;;;;;16.60;55.10;;;12.50;100.00;96310.09;4984620;28;19979;-49
2023/06/24 02:34:40;;;;;;;;;;;16.60;55.20;;;12.46;100.00;96304.47;5008031;28;19914;-49
2023/06/24 02:37:06;;;;;;;;;;;16.60;55.20;;;12.44;100.00;96311.13;5007923;28;19916;-47
2023/06/24 02:39:32;;;;;;;;;;;16.50;55.30;;;12.38;100.00;96312.97;4984738;28;19909;-50
2023/06/24 02:41:57;;;;;;;;;;;16.50;55.40;;;12.40;100.00;96318.84;4992303;28;19917;-51
2023/06/24 02:44:23;;;;;;;;;;;16.50;55.50;;;12.38;100.00;96312.97;4983149;28;20364;-48
2023/06/24 02:46:52;;;;;;;;;;;16.40;55.80;;;12.42;100.00;96323.97;4990096;28;19917;-49
2023/06/24 02:49:21;;;;;;;;;;;16.40;55.60;;;12.38;100.00;96320.16;5007463;28;19952;-49
2023/06/24 02:51:48;;;;;;;;;;;16.40;55.70;;;12.34;100.00;96319.88;5005840;28;19909;-46
2023/06/24 02:54:15;;;;;;;;;;;16.40;55.70;;;12.31;100.00;96323.06;5007620;28;19915;-46
2023/06/24 02:56:44;;;;;;;;;;;16.40;55.80;;;12.28;100.00;96318.25;4985903;28;19952;-49
2023/06/24 02:59:10;;;;;;;;;;;16.40;55.80;;;12.33;100.00;96323.63;4985705;28;19913;-47
2023/06/24 03:01:45;;;;;;;;;;;16.40;56.00;;;12.38;100.00;96312.97;5004015;28;19917;-50
2023/06/24 03:04:11;;;;;;;;;;;16.40;56.10;;;12.44;100.00;96319.13;4985386;28;19999;-48
2023/06/24 03:06:39;;;;;;;;;;;16.40;56.20;;;12.49;100.00;96311.97;4992321;28;20016;-48
2023/06/24 03:09:07;;;;;;;;;;;16.40;56.30;;;12.54;100.00;96321.88;4978686;28;19909;-46
2023/06/24 03:11:43;;;;;;;;;;;16.40;56.30;;;12.56;100.00;96313.59;4992257;28;19917;-47
2023/06/24 03:14:11;;;;;;;;;;;16.50;56.40;;;12.56;100.00;96316.28;4987940;28;19913;-47
2023/06/24 03:16:40;;;;;;;;;;;16.50;56.30;;;12.55;100.00;96320.81;4991990;28;19996;-48
2023/06/24 03:19:06;;;;;;;;;;;16.50;56.40;;;12.58;100.00;96314.16;4994640;28;20360;-48
2023/06/24 03:21:33;;;;;;;;;;;16.50;56.40;;;12.60;100.00;96323.53;4986999;28;19994;-49
2023/06/24 03:23:59;;;;;;;;;;;16.60;57.20;;;12.65;100.00;96328.88;4995881;28;20019;-49
2023/06/24 03:26:33;;;;;;;;;;;16.60;57.20;;;12.68;100.00;96322.22;4986417;28;19916;-51
2023/06/24 03:28:59;;;;;;;;;;;16.60;56.70;;;12.72;100.00;96325.97;4985517;28;20401;-49
2023/06/24 03:31:24;;;;;;;;;;;16.60;56.70;;;12.77;100.00;96331.34;4985675;28;19947;-50
2023/06/24 03:33:50;;;;;;;;;;;16.70;56.80;;;12.81;100.00;96332.44;4993361;28;19910;-48
2023/06/24 03:36:16;;;;;;;;;;;16.70;56.80;;;12.83;100.00;96330.31;4995577;28;19916;-48
2023/06/24 03:38:41;;;;;;;;;;;16.80;56.80;;;12.83;100.00;96335.66;4987887;28;19916;-51
2023/06/24 03:41:07;;;;;;;;;;;16.80;56.70;;;12.79;100.00;96336.47;4995496;28;19909;-50
2023/06/24 03:43:33;;;;;;;;;;;16.80;56.60;;;12.72;100.00;96334.81;4993340;28;19924;-49
2023/06/24 03:45:59;;;;;;;;;;;16.80;56.50;;;12.66;100.00;96337.69;5001106;28;20304;-47
2023/06/24 03:48:26;;;;;;;;;;;16.80;56.50;;;12.60;100.00;96336.91;4995230;28;20021;-47
2023/06/24 03:50:51;;;;;;;;;;;16.80;56.50;;;12.56;100.00;96335.78;4983488;28;20324;-47
2023/06/24 03:53:17;;;;;;;;;;;16.70;56.40;;;12.54;100.00;96331.78;4992615;28;19914;-47
2023/06/24 03:55:43;;;;;;;;;;;16.70;56.50;;;12.53;100.00;96341.63;4992096;28;19917;-48
2023/06/24 03:58:08;;;;;;;;;;;16.70;57.20;;;12.54;100.00;96347.81;4983567;28;20391;-49
2023/06/24 04:00:39;;;;;;;;;;;16.70;56.70;;;12.55;100.00;96342.19;4995050;28;19910;-48
2023/06/24 04:03:04;;;;;;;;;;;16.80;56.70;;;12.61;100.00;96340.38;4999381;28;20295;-46
2023/06/24 04:05:30;;;;;;;;;;;16.80;56.70;;;12.63;100.00;96344.41;4995129;28;19932;-46
2023/06/24 04:07:56;;;;;;;;;;;16.80;56.70;;;12.66;100.00;96337.69;4990170;28;19921;-47
2023/06/24 04:10:22;;;;;;;;;;;16.80;56.80;;;12.66;100.00;96337.69;4986126;28;19914;-49
2023/06/24 04:12:47;;;;;;;;;;;16.80;56.70;;;12.68;100.00;96341.72;4994597;28;20356;-48
2023/06/24 04:15:13;;;;;;;;;;;16.80;56.70;;;12.76;100.00;96337.78;4989824;28;19909;-47
2023/06/24 04:17:39;;;;;;;;;;;16.90;56.80;;;12.93;100.00;96343.72;4994477;28;19920;-47
2023/06/24 04:20:08;;;;;;;;;;;16.90;56.80;;;13.15;100.00;96340.88;4989432;28;19921;-48
2023/06/24 04:22:37;;;;;;;;;;;17.10;56.80;;;13.37;100.00;96348.72;4992498;28;20271;-47
2023/06/24 04:25:05;;;;;;;;;;;17.20;56.80;;;13.59;100.00;96345.84;4994878;28;19955;-49
2023/06/24 04:27:33;;;;;;;;;;;17.30;56.80;;;13.82;100.00;96351.75;4981803;28;19920;-47
2023/06/24 04:30:00;;;;;;;;;;;17.40;56.80;;;14.01;100.00;96352.06;4977773;28;20004;-48
2023/06/24 04:32:26;;;;;;;;;;;17.60;56.70;;;14.20;99.29;96358.50;4991197;28;19909;-47
2023/06/24 04:34:52;;;;;;;;;;;17.70;56.60;;;14.41;97.82;96350.44;5009602;28;20394;-50
2023/06/24 04:37:18;;;;;;;;;;;17.90;56.50;;;14.58;95.46;96354.47;4994205;28;19916;-46
2023/06/24 04:39:45;;;;;;;;;;;18.00;56.40;;;14.76;93.63;96357.63;4988007;28;19928;-47
2023/06/24 04:42:11;;;;;;;;;;;18.20;56.30;;;14.89;92.30;96365.13;5001182;23;19967;-48
2023/06/24 04:44:37;;;;;;;;;;;18.40;56.10;;;14.99;89.77;96369.66;4987037;28;20046;-48
2023/06/24 04:47:03;;;;;;;;;;;18.60;56.00;;;15.10;88.05;96381.16;4986063;28;20372;-48
2023/06/24 04:49:29;;;;;;;;;;;18.70;55.80;;;15.20;87.58;96378.44;4976586;28;19944;-48
2023/06/24 04:51:55;;;;;;;;;;;18.90;55.70;;;15.34;86.96;96386.72;4992791;28;20352;-48
2023/06/24 04:54:21;;;;;;;;;;;19.00;55.40;;;15.46;86.47;96381.81;4992054;28;19913;-48
2023/06/24 04:56:48;;;;;;;;;;;19.20;55.30;;;15.55;85.28;96374.81;4986349;28;19909;-48
2023/06/24 04:59:14;;;;;;;;;;;19.30;55.20;;;15.68;85.57;96378.78;4984906;28;19909;-48
2023/06/24 05:01:39;;;;;;;;;;;19.50;55.00;;;15.81;84.53;96383.53;4987785;28;20024;-49
2023/06/24 05:04:05;;;;;;;;;;;19.60;54.80;;;15.95;83.98;96381.00;4985805;28;20003;-48
2023/06/24 05:06:31;;;;;;;;;;;19.80;54.70;;;16.08;83.92;96380.41;4986664;28;19956;-48
2023/06/24 05:08:57;;;;;;;;;;;20.00;54.60;;;16.20;82.48;96380.03;4973470;28;20351;-48
2023/06/24 05:11:22;;;;;;;;;;;20.10;54.40;;;16.30;81.50;96377.28;4992117;28;19963;-48
2023/06/24 05:13:48;;;;;;;;;;;20.30;54.30;;;16.40;81.37;96371.81;4988556;28;19914;-47
2023/06/24 05:16:14;;;;;;;;;;;20.50;54.10;;;16.52;81.08;96384.09;4991322;28;19962;-50
2023/06/24 05:18:40;;;;;;;;;;;20.60;53.90;;;16.61;80.69;96388.56;4989432;28;19932;-48
2023/06/24 05:21:05;;;;;;;;;;;20.70;53.70;;;16.78;79.79;96385.47;4969289;28;19917;-50
2023/06/24 05:23:31;;;;;;;;;;;20.90;53.60;;;16.87;80.18;96385.66;4977209;28;19914;-49
2023/06/24 05:25:57;;;;;;;;;;;21.10;53.50;;;16.99;79.86;96387.97;4971230;28;20013;-49
2023/06/24 05:28:23;;;;;;;;;;;21.20;53.30;;;17.01;78.92;96389.25;4981790;28;19963;-52
2023/06/24 05:30:48;;;;;;;;;;;21.30;53.20;;;17.06;77.68;96385.72;4982459;28;20303;-54
2023/06/24 05:33:14;;;;;;;;;;;21.50;53.60;;;17.16;77.76;96391.00;4981508;28;19963;-52
2023/06/24 05:35:43;;;;;;;;;;;21.70;52.90;;;17.11;76.85;96385.69;4977095;28;20350;-50
2023/06/24 05:38:08;;;;;;;;;;;21.80;52.70;;;17.10;77.52;96382.16;4971857;28;20272;-53
2023/06/24 05:40:34;;;;;;;;;;;21.90;52.40;;;17.23;77.65;96386.06;4976146;28;19916;-49
2023/06/24 05:43:00;;;;;;;;;;;22.00;52.20;;;17.46;76.91;96389.03;4977654;28;20012;-53
2023/06/24 05:45:26;;;;;;;;;;;22.20;52.10;;;17.65;75.40;96386.38;4977300;28;19909;-49
2023/06/24 05:47:52;;;;;;;;;;;22.30;52.00;;;17.70;73.83;96392.47;4981030;28;19929;-48
2023/06/24 05:50:18;;;;;;;;;;;22.50;51.80;;;17.54;73.23;96394.56;4978967;28;19914;-51
2023/06/24 05:52:44;;;;;;;;;;;22.60;51.60;;;17.70;73.60;96387.09;4989387;28;19916;-51
2023/06/24 05:55:09;;;;;;;;;;;22.70;51.40;;;18.04;72.26;96386.91;4977305;28;20395;-52
2023/06/24 05:57:36;;;;;;;;;;;22.90;51.30;;;18.36;70.36;96395.31;4974403;28;20420;-50
2023/06/24 06:00:03;;;;;;;;;;;23.10;51.20;;;18.56;69.88;96388.81;4981505;28;20004;-48
2023/06/24 06:02:29;;;;;;;;;;;23.30;51.00;;;18.60;68.66;96390.59;4969332;28;19916;-48
2023/06/24 06:04:54;;;;;;;;;;;23.50;50.80;;;18.64;68.07;96388.09;4969630;28;20369;-50
2023/06/24 06:07:20;;;;;;;;;;;23.70;50.60;;;18.45;69.45;96390.84;4974309;28;19992;-48
2023/06/24 06:09:46;;;;;;;;;;;23.90;50.20;;;18.43;69.50;96390.38;4970467;28;19909;-50
2023/06/24 06:12:12;;;;;;;;;;;24.00;49.90;;;18.80;68.96;96394.06;4970977;28;19910;-48
2023/06/24 06:14:37;;;;;;;;;;;24.10;49.60;;;18.65;69.57;96395.13;4963034;28;19946;-49
2023/06/24 06:17:03;;;;;;;;;;;24.30;49.40;;;18.87;69.02;96386.41;4968123;28;19910;-48
2023/06/24 06:19:29;;;;;;;;;;;24.40;49.20;;;18.99;68.76;96386.72;4968556;28;19914;-53
2023/06/24 06:21:55;;;;;;;;;;;24.60;49.00;;;18.88;69.31;96388.78;4979798;28;19964;-49
2023/06/24 06:24:20;;;;;;;;;;;24.70;48.90;;;19.19;67.37;96380.13;4977221;28;20246;-48
2023/06/24 06:26:46;;;;;;;;;;;24.80;48.60;;;19.29;68.10;96381.81;4973426;28;19910;-48
2023/06/24 06:29:12;;;;;;;;;;;25.00;48.40;;;19.36;67.11;96387.59;4972104;28;19917;-48
2023/06/24 06:31:39;;;;;;;;;;;25.20;48.90;;;19.53;66.97;96397.81;4971362;28;19909;-47
2023/06/24 06:34:05;;;;;;;;;;;25.30;48.70;;;19.67;66.37;96385.09;4971815;28;19952;-49
2023/06/24 06:36:31;;;;;;;;;;;25.50;47.90;;;19.79;65.62;96390.00;5006700;28;19913;-50
2023/06/24 06:38:57;;;;;;;;;;;25.60;47.70;;;19.72;67.08;96393.13;4979658;28;19910;-48
2023/06/24 06:41:24;;;;;;;;;;;25.70;47.50;;;19.90;65.12;96385.16;4991347;28;19932;-47
2023/06/24 06:43:54;;;;;;;;;;;25.80;47.30;;;19.97;65.66;96388.25;4989533;28;20319;-47
2023/06/24 06:46:20;;;;;;;;;;;25.90;47.20;;;20.27;64.58;96392.94;4991098;28;19956;-46
2023/06/24 06:48:46;;;;;;;;;;;26.10;47.10;;;20.55;63.38;96393.63;4978572;28;19914;-49
2023/06/24 06:51:13;;;;;;;;;;;26.20;47.00;;;20.37;63.11;96388.38;4988839;28;19916;-46
2023/06/24 06:53:39;;;;;;;;;;;26.40;46.80;;;20.64;62.95;96395.63;4989804;28;20335;-46
2023/06/24 06:56:05;;;;;;;;;;;26.50;46.70;;;20.91;62.16;96383.84;4989314;28;19953;-47
2023/06/24 06:58:30;;;;;;;;;;;26.70;46.50;;;21.12;60.89;96379.47;4993642;28;19913;-49
2023/06/24 07:01:01;;;;;;;;;;;26.90;46.20;;;21.40;59.51;96385.50;4995199;28;19955;-47
2023/06/24 07:03:28;;;;;;;;;;;27.00;46.00;;;21.42;58.11;96383.25;4993445;28;19909;-48
2023/06/24 07:05:53;;;;;;;;;;;27.20;45.70;;;21.54;57.86;96377.22;4994796;28;19948;-48
2023/06/24 07:08:19;;;;;;;;;;;27.30;45.40;;;21.70;57.44;96380.28;4993663;28;20394;-49
2023/06/24 07:10:45;;;;;;;;;;;27.40;45.20;;;21.64;56.91;96376.94;4992324;28;19910;-53
2023/06/24 07:13:10;;;;;;;;;;;27.60;45.00;;;21.73;56.67;96376.94;4983590;28;20217;-52
2023/06/24 07:15:36;;;;;;;;;;;27.70;44.70;;;21.62;56.07;96370.22;4988774;28;19952;-49
2023/06/24 07:18:02;;;;;;;;;;;27.80;44.50;;;21.67;55.52;96376.28;4994867;28;20361;-49
2023/06/24 07:20:28;;;;;;;;;;;27.90;44.20;;;21.46;55.21;96375.28;4986607;28;20345;-49
2023/06/24 07:22:53;;;;;;;;;;;28.00;43.90;;;21.26;54.99;96372.00;4993133;28;19968;-49
2023/06/24 07:25:19;;;;;;;;;;;28.00;43.50;;;21.11;55.81;96372.44;4994478;28;19913;-49
2023/06/24 07:27:45;;;;;;;;;;;28.10;43.20;;;21.16;56.19;96364.19;4981148;28;19960;-48
2023/06/24 07:30:11;;;;;;;;;;;28.10;43.00;;;21.22;55.58;96365.63;5009740;28;19909;-55
2023/06/24 07:32:37;;;;;;;;;;;28.20;42.80;;;21.42;55.09;96363.50;4989440;28;20364;-54
2023/06/24 07:35:03;;;;;;;;;;;28.20;42.60;;;21.20;57.05;96362.44;4986658;28;19955;-55
2023/06/24 07:37:28;;;;;;;;;;;28.30;42.40;;;21.40;55.74;96363.81;4994648;28;19909;-50
2023/06/24 07:39:54;;;;;;;;;;;28.30;42.30;;;21.88;54.28;96362.94;4985606;28;20358;-53
2023/06/24 07:42:20;;;;;;;;;;;28.40;42.20;;;22.06;53.65;96362.91;4994112;28;19922;-51
2023/06/24 07:44:46;;;;;;;;;;;28.50;41.90;;;22.38;53.13;96364.38;4983065;28;19916;-48
2023/06/24 07:47:12;;;;;;;;;;;28.60;42.40;;;22.54;51.96;96351.09;4976670;28;19914;-50
2023/06/24 07:49:38;;;;;;;;;;;28.70;41.80;;;22.78;52.00;96359.53;4985187;28;20336;-50
2023/06/24 07:52:04;;;;;;;;;;;28.90;41.50;;;22.89;51.35;96364.59;4993033;28;19910;-47
2023/06/24 07:54:30;;;;;;;;;;;29.00;41.20;;;23.00;50.40;96349.53;4988907;28;19917;-48
2023/06/24 07:56:56;;;;;;;;;;;29.20;41.10;;;23.01;50.40;96362.03;4992834;28;19909;-51
2023/06/24 07:59:22;;;;;;;;;;;29.40;40.80;;;22.67;51.62;96349.31;4994404;28;19917;-49
2023/06/24 08:01:48;;;;;;;;;;;29.50;40.50;;;23.05;50.58;96346.66;4990113;28;19925;-46
2023/06/24 08:04:15;;;;;;;;;;;29.60;40.30;;;22.95;50.84;96342.38;4981474;28;19914;-49
2023/06/24 08:06:41;;;;;;;;;;;29.70;40.10;;;23.24;51.32;96347.03;4992849;28;19910;-51
2023/06/24 08:09:07;;;;;;;;;;;29.80;40.00;;;23.40;49.97;96350.00;5006817;28;19909;-50
2023/06/24 08:11:33;;;;;;;;;;;29.90;39.90;;;23.68;49.40;96344.06;4993850;28;19909;-51
2023/06/24 08:13:59;;;;;;;;;;;30.00;39.80;;;24.00;49.27;96350.75;5003579;28;20008;-50
2023/06/24 08:16:25;;;;;;;;;;;30.20;39.70;;;24.21;49.84;96348.03;4992805;28;19910;-50
2023/06/24 08:18:51;;;;;;;;;;;30.30;39.50;;;24.47;47.86;96345.06;4993895;28;19917;-51
2023/06/24 08:21:17;;;;;;;;;;;30.50;39.40;;;24.37;47.93;96343.53;4974827;28;19916;-54
2023/06/24 08:23:42;;;;;;;;;;;30.60;39.20;;;24.52;48.28;96339.44;4993537;28;19910;-51
2023/06/24 08:26:08;;;;;;;;;;;30.70;38.90;;;24.32;49.15;96330.16;4987463;28;19941;-51
2023/06/24 08:28:35;;;;;;;;;;;30.90;39.40;;;24.36;50.19;96333.00;5001089;28;19914;-51
2023/06/24 08:31:00;;;;;;;;;;;31.00;38.60;;;24.52;48.16;96331.25;4993378;28;20008;-55
2023/06/24 08:33:26;;;;;;;;;;;31.10;38.50;;;24.65;48.97;96330.16;4982576;28;20008;-51
2023/06/24 08:35:52;;;;;;;;;;;31.30;38.40;;;24.55;48.88;96324.34;4991731;28;20426;-50
2023/06/24 08:38:18;;;;;;;;;;;31.40;38.20;;;24.81;48.53;96333.03;4985967;28;19956;-48
2023/06/24 08:40:45;;;;;;;;;;;31.50;38.10;;;25.03;48.12;96331.81;4991976;28;19916;-47
2023/06/24 08:43:11;;;;;;;;;;;31.50;38.00;;;25.05;48.84;96329.53;4993160;28;20426;-48
2023/06/24 08:45:36;;;;;;;;;;;31.70;37.90;;;25.19;47.01;96326.50;4996146;28;19913;-47
2023/06/24 08:48:04;;;;;;;;;;;31.70;37.60;;;25.43;47.91;96335.81;4981209;28;19920;-49
2023/06/24 08:50:43;;;;;;;;;;;31.80;37.50;;;25.42;45.43;96326.06;5003980;28;20009;-52
2023/06/24 08:53:10;;;;;;;;;;;31.90;37.20;;;25.23;46.60;96323.88;4988343;28;19964;-49
2023/06/24 08:55:46;;;;;;;;;;;32.00;37.10;;;25.65;45.37;96318.97;5006892;28;19949;-53
2023/06/24 08:58:13;;;;;;;;;;;32.10;37.50;;;25.68;43.86;96309.31;4989382;28;20304;-48
2023/06/24 09:00:41;;;;;;;;;;;32.30;36.70;;;25.87;44.30;96314.19;4993075;28;19948;-50
2023/06/24 09:03:07;;;;;;;;;;;32.30;36.30;;;25.24;45.87;96311.84;4988567;28;19910;-51
2023/06/24 09:05:32;;;;;;;;;;;32.40;36.30;;;25.88;43.83;96315.75;4981813;28;19913;-54
2023/06/24 09:07:58;;;;;;;;;;;32.50;36.20;;;25.47;43.62;96321.16;4988829;28;19953;-51
2023/06/24 09:10:36;;;;;;;;;;;32.60;36.00;;;24.54;45.19;96320.03;4983369;28;20294;-50
2023/06/24 09:13:05;;;;;;;;;;;32.70;35.60;;;25.16;42.98;96305.38;4992725;28;20280;-50
2023/06/24 09:15:32;;;;;;;;;;;32.70;35.60;;;25.33;42.14;96307.09;4987033;28;20004;-53
2023/06/24 09:18:00;;;;;;;;;;;32.70;35.40;;;25.41;42.80;96303.44;4992666;28;20005;-50
2023/06/24 09:20:27;;;;;;;;;;;32.80;35.10;;;25.68;42.40;96299.19;4985567;28;19913;-47
2023/06/24 09:23:02;;;;;;;;;;;32.80;35.00;;;25.64;42.71;96297.50;4992066;28;19961;-54
2023/06/24 09:25:29;;;;;;;;;;;32.90;34.90;;;25.62;41.73;96304.06;4992255;28;20386;-51
2023/06/24 09:28:00;;;;;;;;;;;33.00;34.90;;;25.11;42.60;96291.97;4995639;28;19917;-51
2023/06/24 09:30:26;;;;;;;;;;;33.00;34.40;;;25.29;43.74;96297.97;5007514;28;20052;-51
2023/06/24 09:32:53;;;;;;;;;;;32.90;34.10;;;25.24;43.51;96296.28;4989020;28;20003;-50
2023/06/24 09:35:25;;;;;;;;;;;32.90;34.00;;;24.81;43.75;96288.66;4987932;28;20387;-55
2023/06/24 09:37:57;;;;;;;;;;;32.80;33.70;;;25.19;40.47;96285.59;5006312;28;20405;-50
2023/06/24 09:40:23;;;;;;;;;;;32.80;33.80;;;25.65;42.56;96286.22;4992263;28;19932;-50
2023/06/24 09:42:56;;;;;;;;;;;32.80;33.70;;;26.07;42.46;96277.69;4991971;28;19924;-50
2023/06/24 09:45:29;;;;;;;;;;;32.90;33.60;;;26.19;41.34;96269.47;4980741;28;20012;-50
2023/06/24 09:47:57;;;;;;;;;;;33.00;33.50;;;26.47;40.82;96277.63;4980777;28;20012;-47
2023/06/24 09:50:24;;;;;;;;;;;33.00;33.30;;;26.53;40.78;96278.97;4988331;28;19916;-47
2023/06/24 09:52:52;;;;;;;;;;;33.20;33.30;;;26.99;40.55;96273.09;4989105;28;20289;-49
2023/06/24 09:55:18;;;;;;;;;;;33.30;33.30;;;27.15;39.54;96281.31;4990985;28;19967;-50
2023/06/24 09:57:52;;;;;;;;;;;33.40;33.20;;;27.12;39.46;96271.84;4985749;28;19923;-51
2023/06/24 10:00:21;;;;;;;;;;;33.60;33.20;;;27.26;39.68;96265.16;5007014;28;19947;-49
2023/06/24 10:02:49;;;;;;;;;;;33.70;33.30;;;27.38;39.81;96256.81;4981486;28;19925;-51
2023/06/24 10:05:15;;;;;;;;;;;33.80;32.70;;;27.29;39.94;96267.97;5006980;28;19909;-48
2023/06/24 10:07:43;;;;;;;;;;;33.90;32.50;;;26.71;41.24;96273.97;4990291;28;19920;-48
2023/06/24 10:10:09;;;;;;;;;;;33.90;32.40;;;26.69;40.83;96267.28;5007303;28;19917;-54
2023/06/24 10:12:36;;;;;;;;;;;33.90;32.20;;;26.97;40.80;96262.50;4991966;28;19909;-49
2023/06/24 10:15:02;;;;;;;;;;;34.00;32.20;;;27.06;40.64;96273.25;4986618;28;19945;-54
2023/06/24 10:17:30;;;;;;;;;;;34.10;32.30;;;25.84;40.98;96259.16;4991720;28;20413;-53
2023/06/24 10:19:56;;;;;;;;;;;34.10;32.00;;;25.95;41.56;96254.00;4988178;28;19949;-52
2023/06/24 10:22:25;;;;;;;;;;;34.00;31.80;;;25.65;39.96;96256.22;4986608;28;20362;-53
2023/06/24 10:24:53;;;;;;;;;;;34.00;31.70;;;25.83;39.46;96257.56;4991899;28;19914;-54
2023/06/24 10:27:22;;;;;;;;;;;33.90;31.50;;;26.02;37.94;96246.00;4979171;28;20335;-50
2023/06/24 10:29:51;;;;;;;;;;;33.90;31.40;;;25.87;37.93;96252.22;5011084;28;19920;-50
2023/06/24 10:32:19;;;;;;;;;;;33.90;31.10;;;26.05;39.24;96255.44;5005134;28;19949;-50
2023/06/24 10:34:53;;;;;;;;;;;33.90;31.20;;;25.93;39.22;96250.81;4988900;28;20008;-51
2023/06/24 10:37:25;;;;;;;;;;;33.90;31.10;;;26.06;39.55;96246.09;4996136;28;19909;-52
2023/06/24 10:39:57;;;;;;;;;;;33.90;31.10;;;26.03;37.56;96241.34;4987560;28;20368;-51
2023/06/24 10:42:33;;;;;;;;;;;34.00;30.90;;;25.86;38.10;96238.94;4995243;28;20288;-48
2023/06/24 10:45:14;;;;;;;;;;;33.90;30.50;;;26.18;38.31;96237.06;5002077;23;19925;-47
2023/06/24 10:47:59;;;;;;;;;;;34.00;30.70;;;26.44;36.65;96240.09;4981214;28;19914;-45
2023/06/24 10:50:25;;;;;;;;;;;34.00;30.50;;;26.31;37.46;96241.31;4978850;28;20348;-48
2023/06/24 10:52:56;;;;;;;;;;;34.10;30.40;;;25.94;36.61;96224.31;4992313;28;19925;-47
2023/06/24 10:55:26;;;;;;;;;;;34.10;30.10;;;26.18;35.14;96221.47;4992719;28;19913;-47
2023/06/24 10:57:52;;;;;;;;;;;34.10;29.70;;;26.19;36.92;96230.44;4987290;28;20323;-49
2023/06/24 11:00:20;;;;;;;;;;;34.10;29.50;;;26.60;35.80;96229.19;4995185;28;20013;-46
2023/06/24 11:02:46;;;;;;;;;;;34.10;29.60;;;25.95;33.87;96212.25;4996569;28;19955;-47
2023/06/24 11:05:11;;;;;;;;;;;34.20;29.40;;;25.98;34.43;96219.75;4993353;28;19913;-47
2023/06/24 11:07:38;;;;;;;;;;;34.20;29.20;;;25.87;34.43;96205.03;4993296;28;20248;-48
2023/06/24 11:10:12;;;;;;;;;;;34.20;29.10;;;26.22;35.92;96210.63;4993772;28;19909;-47
2023/06/24 11:12:40;;;;;;;;;;;34.20;29.00;;;25.96;34.07;96203.72;4995172;28;20324;-48
2023/06/24 11:15:09;;;;;;;;;;;34.20;28.70;;;26.31;33.40;96203.88;4988848;28;19956;-45
2023/06/24 11:17:36;;;;;;;;;;;34.20;28.80;;;26.11;34.05;96191.25;5009833;28;19909;-46
2023/06/24 11:20:09;;;;;;;;;;;34.20;28.40;;;26.11;35.82;96196.72;4977650;28;20008;-46